Time;durP1;ratioP1;P1;durP2;ratioP2;P2;SDS_P1;SDS_P2;PMS_P1;PMS_P2;Temp;Humidity;BMP_temperature;BMP_pressure;BME280_temperature;BME280_humidity;BME280_pressure;Samples;Min_cycle;Max_cycle;Signal;HPM_P1;HPM_P2
2023/02/09 00:00:10;;;;;;;3.33;2.50;;;;;;;;;;7398062;19;20461;-90
2023/02/09 00:02:37;;;;;;;3.67;2.43;;;;;;;;;;7397887;19;20164;-92
2023/02/09 00:05:05;;;;;;;1.90;1.80;;;;;;;;;;7398241;19;20133;-92
2023/02/09 00:07:31;;;;;;;4.33;2.73;;;;;;;;;;7398078;19;20133;-92
2023/02/09 00:09:58;;;;;;;3.20;2.63;;;;;;;;;;7397939;19;20168;-89
2023/02/09 00:15:10;;;;;;;3.13;2.83;;;;;;;;;;7397712;19;20150;-92
2023/02/09 00:17:37;;;;;;;1.97;1.70;;;;;;;;;;7398764;19;20129;-94
2023/02/09 00:20:05;;;;;;;2.83;2.53;;;;;;;;;;7398541;19;20132;-89
2023/02/09 00:22:32;;;;;;;3.57;1.73;;;;;;;;;;7400470;19;20137;-90
2023/02/09 00:24:59;;;;;;;1.37;1.30;;;;;;;;;;7400956;19;20135;-92
2023/02/09 00:27:25;;;;;;;2.53;2.37;;;;;;;;;;7400714;19;20604;-91
2023/02/09 00:29:52;;;;;;;2.53;2.33;;;;;;;;;;7401247;19;20125;-91
2023/02/09 00:32:19;;;;;;;3.83;2.93;;;;;;;;;;7400591;19;20129;-92
2023/02/09 00:34:46;;;;;;;1.77;1.67;;;;;;;;;;7401596;19;20121;-92
2023/02/09 00:37:12;;;;;;;3.20;2.97;;;;;;;;;;7402660;19;20133;-92
2023/02/09 00:40:07;;;;;;;3.93;3.53;;;;;;;;;;7400111;19;20481;-92
2023/02/09 00:42:35;;;;;;;2.20;2.07;;;;;;;;;;7397682;19;20653;-92
2023/02/09 00:45:02;;;;;;;2.60;2.43;;;;;;;;;;7399829;19;20657;-92
2023/02/09 00:47:29;;;;;;;3.23;2.33;;;;;;;;;;7402165;19;20151;-94
2023/02/09 00:49:56;;;;;;;4.53;2.63;;;;;;;;;;7402476;19;20196;-94
2023/02/09 00:52:22;;;;;;;3.23;2.53;;;;;;;;;;7401628;19;20141;-91
2023/02/09 00:54:52;;;;;;;1.43;1.33;;;;;;;;;;7403373;19;20140;-93
2023/02/09 00:57:18;;;;;;;2.30;2.10;;;;;;;;;;7402602;19;20133;-93
2023/02/09 00:59:45;;;;;;;4.83;2.40;;;;;;;;;;7402714;19;20143;-93
2023/02/09 01:02:12;;;;;;;2.67;2.43;;;;;;;;;;7403730;19;20141;-92
2023/02/09 01:04:38;;;;;;;3.93;2.60;;;;;;;;;;7400740;19;20172;-91
2023/02/09 01:07:05;;;;;;;4.37;2.70;;;;;;;;;;7400949;19;20209;-89
2023/02/09 01:09:32;;;;;;;1.87;1.73;;;;;;;;;;7401588;19;20129;-91
2023/02/09 01:11:59;;;;;;;2.63;2.43;;;;;;;;;;7403389;19;20141;-89
2023/02/09 01:14:25;;;;;;;2.37;2.17;;;;;;;;;;7401109;19;20179;-88
2023/02/09 01:16:52;;;;;;;3.47;3.13;;;;;;;;;;7403816;19;20133;-92
2023/02/09 01:19:19;;;;;;;3.27;3.03;;;;;;;;;;7403039;19;20136;-91
2023/02/09 01:21:47;;;;;;;4.27;3.10;;;;;;;;;;7401582;19;20202;-91
2023/02/09 01:24:14;;;;;;;4.17;2.20;;;;;;;;;;7402441;19;20568;-93
2023/02/09 01:26:41;;;;;;;3.80;2.53;;;;;;;;;;7404492;19;20125;-92
2023/02/09 01:29:11;;;;;;;3.30;2.93;;;;;;;;;;7404870;19;20159;-90
2023/02/09 01:31:38;;;;;;;3.07;2.70;;;;;;;;;;7404096;19;20604;-91
2023/02/09 01:34:05;;;;;;;3.53;3.07;;;;;;;;;;7402592;19;20501;-90
2023/02/09 01:36:32;;;;;;;4.40;2.77;;;;;;;;;;7403506;19;20223;-92
2023/02/09 01:39:01;;;;;;;4.33;2.60;;;;;;;;;;7402880;19;20132;-92
2023/02/09 01:41:28;;;;;;;3.60;3.30;;;;;;;;;;7404862;19;20143;-94
2023/02/09 01:44:26;;;;;;;3.17;2.97;;;;;;;;;;7404674;19;20230;-93
2023/02/09 01:46:52;;;;;;;3.37;2.60;;;;;;;;;;7401343;19;20500;-91
2023/02/09 01:49:26;;;;;;;4.20;3.47;;;;;;;;;;7402693;19;20126;-92
2023/02/09 01:52:00;;;;;;;2.80;2.37;;;;;;;;;;7402697;19;20141;-91
2023/02/09 01:54:36;;;;;;;2.50;2.20;;;;;;;;;;7400997;19;20153;-93
2023/02/09 01:57:07;;;;;;;5.30;2.87;;;;;;;;;;7402354;19;20410;-94
2023/02/09 01:59:37;;;;;;;2.30;2.00;;;;;;;;;;7401406;19;20133;-92
2023/02/09 02:02:05;;;;;;;3.87;2.63;;;;;;;;;;7399934;19;20133;-91
2023/02/09 02:04:33;;;;;;;4.30;3.17;;;;;;;;;;7400038;19;20167;-93
2023/02/09 02:07:10;;;;;;;4.93;3.17;;;;;;;;;;7403247;19;20140;-94
2023/02/09 02:09:37;;;;;;;3.77;3.10;;;;;;;;;;7402580;19;20666;-94
2023/02/09 02:12:04;;;;;;;5.10;2.83;;;;;;;;;;7402961;19;20133;-94
2023/02/09 02:14:33;;;;;;;2.90;2.63;;;;;;;;;;7402765;19;20153;-94
2023/02/09 02:17:26;;;;;;;2.97;2.67;;;;;;;;;;7403582;19;20140;-94
2023/02/09 02:20:21;;;;;;;4.73;2.87;;;;;;;;;;7408560;19;20140;-94
2023/02/09 02:22:48;;;;;;;4.47;3.80;;;;;;;;;;7432309;19;20156;-95
2023/02/09 02:26:02;;;;;;;7.67;4.27;;;;;;;;;;7433946;19;20129;-95
2023/02/09 02:29:06;;;;;;;2.97;2.73;;;;;;;;;;7426101;19;20133;-93
2023/02/09 02:31:52;;;;;;;4.90;2.67;;;;;;;;;;7411661;19;20477;-90
2023/02/09 02:34:49;;;;;;;4.70;3.40;;;;;;;;;;7412697;19;20175;-93
2023/02/09 02:37:36;;;;;;;7.47;3.77;;;;;;;;;;7413294;19;20140;-93
2023/02/09 02:40:18;;;;;;;6.63;2.83;;;;;;;;;;7413679;19;20585;-93
2023/02/09 02:43:03;;;;;;;3.43;2.80;;;;;;;;;;7414054;19;20160;-94
2023/02/09 02:45:46;;;;;;;7.37;4.10;;;;;;;;;;7433903;19;20157;-94
2023/02/09 02:48:51;;;;;;;3.67;3.33;;;;;;;;;;7433624;19;20136;-96
2023/02/09 02:51:27;;;;;;;3.60;3.30;;;;;;;;;;7431299;19;20129;-92
2023/02/09 02:54:00;;;;;;;4.60;2.73;;;;;;;;;;7417434;19;20162;-91
2023/02/09 02:56:32;;;;;;;2.70;2.50;;;;;;;;;;7416402;19;20125;-91
2023/02/09 02:59:00;;;;;;;1.47;1.37;;;;;;;;;;7414164;19;20486;-93
2023/02/09 03:01:32;;;;;;;2.90;2.67;;;;;;;;;;7412401;19;20605;-91
2023/02/09 03:04:01;;;;;;;6.53;4.17;;;;;;;;;;7411795;19;20156;-90
2023/02/09 03:06:30;;;;;;;2.20;2.10;;;;;;;;;;7413504;19;20129;-92
2023/02/09 03:08:57;;;;;;;3.63;2.90;;;;;;;;;;7413181;19;20135;-89
2023/02/09 03:11:28;;;;;;;3.40;2.70;;;;;;;;;;7414042;19;20136;-89
2023/02/09 03:14:26;;;;;;;8.30;3.63;;;;;;;;;;7410862;19;20167;-89
2023/02/09 03:17:24;;;;;;;3.03;2.73;;;;;;;;;;7414395;19;20133;-91
2023/02/09 03:19:57;;;;;;;2.93;2.17;;;;;;;;;;7414843;19;20139;-91
2023/02/09 03:22:24;;;;;;;9.43;2.97;;;;;;;;;;7409444;19;20139;-91
2023/02/09 03:24:52;;;;;;;4.40;3.40;;;;;;;;;;7414536;19;20137;-92
2023/02/09 03:27:26;;;;;;;7.73;2.70;;;;;;;;;;7413491;19;20133;-93
2023/02/09 03:29:57;;;;;;;2.73;2.53;;;;;;;;;;7426643;19;20169;-94
2023/02/09 03:32:27;;;;;;;3.00;2.77;;;;;;;;;;7431250;19;20145;-95
2023/02/09 03:34:55;;;;;;;3.73;3.43;;;;;;;;;;7430496;19;20179;-96
2023/02/09 03:37:22;;;;;;;2.90;2.63;;;;;;;;;;7430096;19;20175;-95
2023/02/09 03:39:49;;;;;;;3.73;3.43;;;;;;;;;;7416433;19;20162;-92
2023/02/09 03:42:15;;;;;;;3.77;2.47;;;;;;;;;;7407786;19;20135;-95
2023/02/09 03:44:42;;;;;;;5.20;2.83;;;;;;;;;;7417674;19;20162;-95
2023/02/09 03:47:09;;;;;;;5.13;2.13;;;;;;;;;;7418267;19;20133;-94
2023/02/09 03:49:38;;;;;;;3.07;2.80;;;;;;;;;;7416151;19;20129;-94
2023/02/09 03:52:07;;;;;;;3.27;2.97;;;;;;;;;;7415938;19;20129;-92
2023/02/09 03:54:34;;;;;;;2.20;2.10;;;;;;;;;;7411271;19;20172;-93
2023/02/09 03:57:02;;;;;;;2.93;2.73;;;;;;;;;;7414847;19;20136;-92
2023/02/09 03:59:29;;;;;;;6.10;3.17;;;;;;;;;;7412782;19;20153;-94
2023/02/09 04:01:57;;;;;;;2.83;2.63;;;;;;;;;;7413216;19;20656;-94
2023/02/09 04:04:24;;;;;;;2.53;2.37;;;;;;;;;;7410590;19;20156;-93
2023/02/09 04:06:51;;;;;;;2.63;2.40;;;;;;;;;;7416825;19;20137;-92
2023/02/09 04:09:18;;;;;;;4.63;2.47;;;;;;;;;;7412323;19;20139;-92
2023/02/09 04:11:46;;;;;;;3.70;1.70;;;;;;;;;;7415239;19;20133;-94
2023/02/09 04:14:12;;;;;;;3.90;2.47;;;;;;;;;;7416605;19;20472;-93
2023/02/09 04:16:39;;;;;;;3.00;2.77;;;;;;;;;;7416423;19;20132;-94
2023/02/09 04:19:08;;;;;;;1.60;1.50;;;;;;;;;;7417398;19;20140;-93
2023/02/09 04:21:37;;;;;;;3.50;3.13;;;;;;;;;;7416157;19;20129;-95
2023/02/09 04:24:05;;;;;;;2.20;2.10;;;;;;;;;;7413271;19;20234;-94
2023/02/09 04:26:32;;;;;;;2.33;2.13;;;;;;;;;;7413564;19;20147;-94
2023/02/09 04:28:58;;;;;;;2.33;2.13;;;;;;;;;;7415957;19;20132;-94
2023/02/09 04:31:25;;;;;;;3.10;2.80;;;;;;;;;;7412493;19;20136;-94
2023/02/09 04:33:52;;;;;;;2.73;2.53;;;;;;;;;;7411036;19;20166;-94
2023/02/09 04:36:22;;;;;;;3.10;2.80;;;;;;;;;;7410966;19;20125;-94
2023/02/09 04:38:49;;;;;;;2.63;2.43;;;;;;;;;;7411401;19;20129;-94
2023/02/09 04:41:16;;;;;;;4.93;1.33;;;;;;;;;;7409378;19;20157;-92
2023/02/09 04:43:44;;;;;;;4.07;1.77;;;;;;;;;;7407788;19;20161;-93
2023/02/09 04:46:12;;;;;;;2.43;2.20;;;;;;;;;;7407982;19;20125;-93
2023/02/09 04:48:39;;;;;;;1.23;1.23;;;;;;;;;;7406412;19;20201;-91
2023/02/09 04:51:06;;;;;;;3.33;3.03;;;;;;;;;;7410248;19;20141;-94
2023/02/09 04:53:32;;;;;;;9.33;2.70;;;;;;;;;;7403933;19;20161;-93
2023/02/09 04:55:59;;;;;;;3.50;2.53;;;;;;;;;;7409360;19;20133;-95
2023/02/09 05:01:19;;;;;;;2.90;2.67;;;;;;;;;;7417233;19;20133;-95
2023/02/09 05:03:46;;;;;;;1.97;1.77;;;;;;;;;;7418110;19;20160;-94
2023/02/09 05:06:13;;;;;;;2.53;2.27;;;;;;;;;;7420286;19;20177;-95
2023/02/09 05:08:40;;;;;;;2.27;2.07;;;;;;;;;;7418871;19;20133;-94
2023/02/09 05:11:06;;;;;;;5.03;2.97;;;;;;;;;;7413801;19;20155;-94
2023/02/09 05:13:33;;;;;;;3.47;2.63;;;;;;;;;;7406991;19;20161;-95
2023/02/09 05:16:04;;;;;;;3.93;2.83;;;;;;;;;;7409266;19;20139;-91
2023/02/09 05:18:30;;;;;;;2.77;2.57;;;;;;;;;;7409128;19;20133;-95
2023/02/09 05:20:57;;;;;;;1.97;1.87;;;;;;;;;;7409518;19;20117;-94
2023/02/09 05:23:23;;;;;;;2.80;2.53;;;;;;;;;;7407329;19;20156;-93
2023/02/09 05:25:50;;;;;;;3.57;2.43;;;;;;;;;;7410266;19;20148;-94
2023/02/09 05:28:16;;;;;;;4.20;3.80;;;;;;;;;;7409195;19;20133;-94
2023/02/09 05:30:43;;;;;;;2.63;2.37;;;;;;;;;;7410454;19;20682;-92
2023/02/09 05:33:10;;;;;;;2.87;2.67;;;;;;;;;;7406702;19;20163;-89
2023/02/09 05:35:37;;;;;;;2.33;2.17;;;;;;;;;;7405936;19;20128;-92
2023/02/09 05:38:03;;;;;;;4.33;3.93;;;;;;;;;;7409910;19;20184;-92
2023/02/09 05:40:30;;;;;;;4.20;3.63;;;;;;;;;;7409910;19;20180;-93
2023/02/09 05:42:58;;;;;;;3.37;3.17;;;;;;;;;;7408760;19;20163;-94
2023/02/09 05:45:25;;;;;;;2.77;2.57;;;;;;;;;;7409517;19;20167;-94
2023/02/09 05:47:51;;;;;;;4.17;3.27;;;;;;;;;;7410390;19;20135;-93
2023/02/09 05:50:18;;;;;;;3.27;2.87;;;;;;;;;;7410334;19;20887;-92
2023/02/09 05:52:45;;;;;;;2.60;2.40;;;;;;;;;;7404733;19;20160;-92
2023/02/09 05:55:11;;;;;;;5.17;2.57;;;;;;;;;;7405975;19;20137;-92
2023/02/09 05:57:38;;;;;;;2.80;2.50;;;;;;;;;;7405258;19;20125;-92
2023/02/09 06:00:07;;;;;;;1.83;1.63;;;;;;;;;;7403341;19;20160;-93
2023/02/09 06:02:34;;;;;;;3.17;2.73;;;;;;;;;;7404583;19;20129;-92
2023/02/09 06:05:00;;;;;;;1.97;1.87;;;;;;;;;;7405775;19;20149;-93
2023/02/09 06:07:27;;;;;;;2.70;2.23;;;;;;;;;;7405713;19;20152;-93
2023/02/09 06:09:54;;;;;;;3.33;3.13;;;;;;;;;;7405381;19;20137;-92
2023/02/09 06:12:20;;;;;;;3.13;2.80;;;;;;;;;;7408922;19;20153;-93
2023/02/09 06:14:47;;;;;;;2.63;2.50;;;;;;;;;;7407877;19;20142;-92
2023/02/09 06:17:13;;;;;;;10.60;3.53;;;;;;;;;;7408303;19;20168;-92
2023/02/09 06:19:43;;;;;;;3.17;2.97;;;;;;;;;;7408785;19;20125;-91
2023/02/09 06:22:10;;;;;;;3.50;3.20;;;;;;;;;;7408856;19;20544;-94
2023/02/09 06:24:36;;;;;;;3.20;2.70;;;;;;;;;;7405332;19;20163;-91
2023/02/09 06:27:03;;;;;;;3.33;2.53;;;;;;;;;;7407423;19;20160;-92
2023/02/09 06:29:30;;;;;;;3.17;1.90;;;;;;;;;;7406793;19;20165;-92
2023/02/09 06:31:57;;;;;;;2.93;2.73;;;;;;;;;;7406506;19;20137;-93
2023/02/09 06:34:24;;;;;;;3.80;3.50;;;;;;;;;;7402097;19;20144;-91
2023/02/09 06:36:51;;;;;;;3.60;2.83;;;;;;;;;;7405070;19;20133;-93
2023/02/09 06:39:17;;;;;;;4.07;3.17;;;;;;;;;;7415998;19;20136;-93
2023/02/09 06:41:46;;;;;;;3.73;3.43;;;;;;;;;;7417457;19;20122;-95
2023/02/09 06:44:13;;;;;;;4.57;3.60;;;;;;;;;;7424807;19;20162;-95
2023/02/09 06:46:40;;;;;;;4.07;2.47;;;;;;;;;;7426173;19;20138;-92
2023/02/09 06:49:06;;;;;;;2.43;2.33;;;;;;;;;;7423181;19;20140;-90
2023/02/09 06:51:33;;;;;;;4.13;3.73;;;;;;;;;;7400649;19;20140;-90
2023/02/09 06:54:00;;;;;;;4.60;3.10;;;;;;;;;;7398185;19;20163;-87
2023/02/09 06:56:26;;;;;;;4.87;3.17;;;;;;;;;;7400156;19;20141;-90
2023/02/09 06:58:53;;;;;;;3.60;3.13;;;;;;;;;;7399602;19;20785;-93
2023/02/09 07:01:23;;;;;;;3.33;3.13;;;;;;;;;;7422342;19;20144;-95
2023/02/09 07:03:50;;;;;;;3.90;3.60;;;;;;;;;;7420890;19;20153;-94
2023/02/09 07:06:18;;;;;;;4.37;3.97;;;;;;;;;;7427985;19;20133;-94
2023/02/09 07:08:46;;;;;;;2.70;2.33;;;;;;;;;;7433421;19;20128;-95
2023/02/09 07:11:26;;;;;;;2.63;2.43;;;;;;;;;;7427841;19;20168;-95
2023/02/09 10:44:35;;;;;;;1.53;1.03;;;;;;;;;;7398752;19;20211;-91
2023/02/09 10:47:14;;;;;;;1.43;1.37;;;;;;;;;;7398492;19;20160;-90
2023/02/09 10:49:40;;;;;;;2.37;2.17;;;;;;;;;;7396542;19;20137;-90
2023/02/09 10:52:19;;;;;;;1.70;1.60;;;;;;;;;;7398718;19;20132;-89
2023/02/09 10:54:50;;;;;;;3.90;2.83;;;;;;;;;;7395739;19;20640;-90
2023/02/09 10:57:21;;;;;;;4.50;2.57;;;;;;;;;;7400064;19;20144;-90
2023/02/09 10:59:52;;;;;;;2.90;1.73;;;;;;;;;;7400147;19;20601;-88
2023/02/09 11:02:34;;;;;;;1.80;1.70;;;;;;;;;;7402169;19;20560;-88
2023/02/09 11:05:01;;;;;;;2.38;2.22;;;;;;;;;;7402545;19;20164;-89
2023/02/09 11:07:32;;;;;;;2.15;2.05;;;;;;;;;;7402245;19;20141;-88
2023/02/09 11:10:00;;;;;;;2.83;2.58;;;;;;;;;;7399306;19;20143;-87
2023/02/09 11:12:28;;;;;;;2.20;1.37;;;;;;;;;;7399613;19;20139;-90
2023/02/09 11:14:54;;;;;;;4.47;1.30;;;;;;;;;;7395727;19;20136;-90
2023/02/09 11:17:24;;;;;;;1.80;1.70;;;;;;;;;;7397807;19;20137;-90
2023/02/09 11:20:19;;;;;;;7.40;1.80;;;;;;;;;;7397273;19;20180;-90
2023/02/09 11:23:11;;;;;;;1.47;1.37;;;;;;;;;;7397074;19;20203;-90
2023/02/09 11:25:45;;;;;;;1.63;1.53;;;;;;;;;;7395479;19;20152;-89
2023/02/09 11:28:17;;;;;;;1.37;1.27;;;;;;;;;;7396635;19;20650;-89
2023/02/09 11:30:53;;;;;;;1.77;1.57;;;;;;;;;;7397787;19;20136;-90
2023/02/09 11:33:39;;;;;;;2.57;2.47;;;;;;;;;;7392785;19;20516;-90
2023/02/09 11:36:29;;;;;;;1.87;1.77;;;;;;;;;;7397773;19;20141;-91
2023/02/09 11:39:01;;;;;;;1.87;1.77;;;;;;;;;;7395663;19;20164;-90
2023/02/09 11:44:38;;;;;;;3.30;2.83;;;;;;;;;;7393373;19;20195;-90
2023/02/09 11:47:08;;;;;;;3.53;3.23;;;;;;;;;;7393804;19;20668;-90
2023/02/09 11:49:45;;;;;;;4.47;2.13;;;;;;;;;;7396958;19;20144;-90
2023/02/09 11:52:16;;;;;;;3.90;1.57;;;;;;;;;;7394680;19;20167;-89
2023/02/09 11:54:46;;;;;;;6.27;1.83;;;;;;;;;;7392929;19;20181;-90
2023/02/09 11:57:28;;;;;;;2.77;2.57;;;;;;;;;;7394780;19;20129;-90
2023/02/09 11:59:57;;;;;;;2.60;2.47;;;;;;;;;;7395057;19;20144;-91
2023/02/09 12:02:23;;;;;;;2.73;2.13;;;;;;;;;;7412186;19;20145;-87
2023/02/09 12:05:00;;;;;;;4.57;4.03;;;;;;;;;;7430767;19;20125;-87
2023/02/09 12:07:45;;;;;;;4.23;1.80;;;;;;;;;;7424714;19;20140;-90
2023/02/09 12:10:26;;;;;;;3.07;2.23;;;;;;;;;;7396349;19;20149;-88
2023/02/09 12:13:01;;;;;;;1.20;1.20;;;;;;;;;;7396079;19;20176;-91
2023/02/09 12:15:40;;;;;;;1.90;1.80;;;;;;;;;;7396359;19;20144;-91
2023/02/09 12:18:13;;;;;;;1.37;1.30;;;;;;;;;;7393884;19;20204;-91
2023/02/09 12:20:40;;;;;;;1.47;1.37;;;;;;;;;;7396923;19;20177;-89
2023/02/09 12:23:09;;;;;;;2.10;1.90;;;;;;;;;;7395374;19;20180;-90
2023/02/09 12:25:50;;;;;;;1.83;1.73;;;;;;;;;;7409331;19;20137;-91
2023/02/09 12:28:23;;;;;;;3.57;2.93;;;;;;;;;;7417314;19;20189;-90
2023/02/09 12:30:50;;;;;;;1.97;1.87;;;;;;;;;;7413232;19;20149;-90
2023/02/09 12:33:22;;;;;;;1.80;1.70;;;;;;;;;;7396255;19;20153;-89
2023/02/09 12:36:11;;;;;;;2.45;2.17;;;;;;;;;;7400203;19;20165;-90
2023/02/09 12:38:50;;;;;;;2.55;2.35;;;;;;;;;;7400304;19;20145;-89
2023/02/09 12:41:34;;;;;;;2.75;2.53;;;;;;;;;;7400330;19;20159;-89
2023/02/09 12:44:10;;;;;;;3.85;2.95;;;;;;;;;;7399651;19;20156;-89
2023/02/09 12:46:43;;;;;;;2.92;2.72;;;;;;;;;;7400114;19;20144;-88
2023/02/09 12:49:12;;;;;;;2.35;2.22;;;;;;;;;;7399773;19;20167;-89
2023/02/09 12:51:45;;;;;;;2.28;2.17;;;;;;;;;;7399581;19;20140;-89
2023/02/09 12:54:30;;;;;;;1.95;1.70;;;;;;;;;;7394856;19;20172;-89
2023/02/09 12:57:15;;;;;;;2.88;2.67;;;;;;;;;;7398634;19;20153;-89
2023/02/09 12:59:48;;;;;;;1.30;1.30;;;;;;;;;;7396592;19;20154;-89
2023/02/09 13:02:27;;;;;;;1.50;1.40;;;;;;;;;;7400727;19;20661;-89
2023/02/09 13:05:13;;;;;;;2.92;2.55;;;;;;;;;;7399262;19;20503;-90
2023/02/09 13:08:05;;;;;;;1.90;1.80;;;;;;;;;;7398026;19;20597;-89
2023/02/09 13:10:49;;;;;;;1.85;1.75;;;;;;;;;;7398336;19;20141;-88
2023/02/09 13:13:20;;;;;;;1.92;1.83;;;;;;;;;;7398738;19;20175;-89
2023/02/09 13:15:59;;;;;;;1.73;1.63;;;;;;;;;;7395788;19;20160;-88
2023/02/09 13:18:57;;;;;;;2.03;1.92;;;;;;;;;;7399739;19;20141;-89
2023/02/09 13:21:23;;;;;;;1.90;1.75;;;;;;;;;;7397155;19;20141;-90
2023/02/09 13:24:22;;;;;;;2.88;2.30;;;;;;;;;;7397512;19;20164;-89
2023/02/09 13:26:54;;;;;;;1.38;1.33;;;;;;;;;;7395229;19;20499;-89
2023/02/09 13:29:23;;;;;;;1.85;1.73;;;;;;;;;;7394386;19;20141;-89
2023/02/09 13:32:14;;;;;;;2.45;2.28;;;;;;;;;;7399155;19;20152;-88
2023/02/09 13:34:55;;;;;;;3.08;2.65;;;;;;;;;;7392907;19;20196;-88
2023/02/09 13:37:30;;;;;;;2.35;2.22;;;;;;;;;;7395980;19;20533;-88
2023/02/09 13:40:08;;;;;;;1.65;1.55;;;;;;;;;;7395487;19;20144;-89
2023/02/09 13:42:35;;;;;;;3.03;1.77;;;;;;;;;;7396716;19;20149;-87
2023/02/09 13:45:02;;;;;;;1.50;1.40;;;;;;;;;;7394439;19;20175;-89
2023/02/09 13:47:29;;;;;;;3.08;2.83;;;;;;;;;;7397282;19;20500;-89
2023/02/09 13:50:48;;;;;;;1.83;1.73;;;;;;;;;;7391324;19;20160;-88
2023/02/09 13:53:30;;;;;;;2.10;2.00;;;;;;;;;;7390742;19;20197;-88
2023/02/09 13:56:01;;;;;;;1.58;1.48;;;;;;;;;;7393967;19;20157;-88
2023/02/09 13:58:38;;;;;;;1.23;1.13;;;;;;;;;;7393945;19;20136;-88
2023/02/09 14:01:10;;;;;;;2.08;1.98;;;;;;;;;;7399334;19;20498;-88
2023/02/09 14:03:49;;;;;;;2.47;1.73;;;;;;;;;;7397386;19;20160;-88
2023/02/09 14:06:32;;;;;;;1.83;1.70;;;;;;;;;;7399815;19;20145;-87
2023/02/09 14:08:59;;;;;;;1.25;1.23;;;;;;;;;;7394477;19;20660;-91
2023/02/09 14:11:28;;;;;;;4.07;2.05;;;;;;;;;;7396247;19;20141;-90
2023/02/09 14:14:24;;;;;;;1.88;1.77;;;;;;;;;;7391391;19;20193;-90
2023/02/09 14:17:10;;;;;;;1.58;1.40;;;;;;;;;;7417864;19;20141;-87
2023/02/09 14:19:51;;;;;;;1.17;1.17;;;;;;;;;;7426318;19;20145;-88
2023/02/09 14:22:36;;;;;;;1.45;1.45;;;;;;;;;;7424140;19;20162;-86
2023/02/09 14:25:11;;;;;;;1.70;1.17;;;;;;;;;;7426836;19;20152;-88
2023/02/09 14:27:39;;;;;;;1.02;1.02;;;;;;;;;;7421670;19;20156;-89
2023/02/09 14:30:19;;;;;;;1.17;1.15;;;;;;;;;;7391706;19;20188;-92
2023/02/09 14:32:50;;;;;;;1.95;1.85;;;;;;;;;;7390647;19;20206;-91
2023/02/09 14:35:20;;;;;;;0.98;0.98;;;;;;;;;;7390275;19;20160;-90
2023/02/09 14:38:31;;;;;;;0.90;0.90;;;;;;;;;;7391810;19;20141;-91
2023/02/09 14:41:26;;;;;;;1.43;1.40;;;;;;;;;;7391842;19;20152;-91
2023/02/09 14:44:01;;;;;;;1.23;1.23;;;;;;;;;;7394565;19;20161;-90
2023/02/09 14:46:28;;;;;;;1.60;1.07;;;;;;;;;;7394006;19;20136;-91
2023/02/09 14:48:56;;;;;;;1.73;1.43;;;;;;;;;;7396865;19;20145;-89
2023/02/09 14:51:22;;;;;;;1.33;1.30;;;;;;;;;;7396298;19;20550;-91
2023/02/09 14:53:49;;;;;;;2.07;1.57;;;;;;;;;;7396456;19;20157;-91
2023/02/09 14:56:29;;;;;;;0.80;0.80;;;;;;;;;;7391259;19;20149;-92
2023/02/09 14:58:56;;;;;;;2.57;1.43;;;;;;;;;;7391937;19;20140;-90
2023/02/09 15:01:24;;;;;;;1.20;1.20;;;;;;;;;;7390237;19;20146;-91
2023/02/09 15:04:00;;;;;;;1.70;1.60;;;;;;;;;;7389442;19;20173;-92
2023/02/09 15:06:31;;;;;;;3.03;0.73;;;;;;;;;;7390826;19;20144;-90
2023/02/09 15:08:59;;;;;;;0.60;0.60;;;;;;;;;;7391005;19;20167;-90
2023/02/09 15:14:16;;;;;;;0.73;0.73;;;;;;;;;;7389268;19;20497;-91
2023/02/09 15:17:13;;;;;;;7.53;4.50;;;;;;;;;;7388035;19;20145;-91
2023/02/09 15:19:57;;;;;;;1.23;1.23;;;;;;;;;;7392358;19;20141;-92
2023/02/09 15:22:32;;;;;;;1.40;0.80;;;;;;;;;;7391116;19;20145;-92
2023/02/09 15:24:59;;;;;;;0.57;0.57;;;;;;;;;;7388881;19;20149;-92
2023/02/09 15:27:30;;;;;;;1.13;1.03;;;;;;;;;;7395462;19;20145;-91
2023/02/09 15:29:57;;;;;;;0.30;0.30;;;;;;;;;;7395863;19;20133;-91
2023/02/09 15:32:27;;;;;;;0.63;0.63;;;;;;;;;;7396818;19;20612;-92
2023/02/09 15:34:54;;;;;;;0.43;0.43;;;;;;;;;;7395379;19;20141;-90
2023/02/09 15:37:24;;;;;;;0.70;0.70;;;;;;;;;;7395570;19;20175;-91
2023/02/09 15:39:57;;;;;;;0.60;0.60;;;;;;;;;;7398003;19;20163;-91
2023/02/09 15:48:08;;;;;;;0.83;0.83;;;;;;;;;;7394752;19;20193;-92
2023/02/09 15:50:37;;;;;;;0.30;0.30;;;;;;;;;;7395786;19;20203;-91
2023/02/09 15:53:06;;;;;;;0.30;0.30;;;;;;;;;;7395665;19;20152;-92
2023/02/09 15:55:34;;;;;;;0.50;0.50;;;;;;;;;;7393785;19;20149;-91
2023/02/09 15:58:01;;;;;;;0.30;0.30;;;;;;;;;;7394078;19;20144;-90
2023/02/09 16:00:29;;;;;;;0.30;0.30;;;;;;;;;;7394760;19;20179;-92
2023/02/09 16:02:57;;;;;;;0.30;0.30;;;;;;;;;;7392215;19;20199;-90
2023/02/09 16:05:26;;;;;;;0.30;0.30;;;;;;;;;;7393487;19;20168;-92
2023/02/09 16:07:54;;;;;;;0.50;0.50;;;;;;;;;;7393308;19;20174;-91
2023/02/09 16:10:23;;;;;;;0.67;0.67;;;;;;;;;;7394033;19;20600;-91
2023/02/09 16:12:51;;;;;;;0.77;0.77;;;;;;;;;;7392665;19;20173;-91
2023/02/09 16:15:21;;;;;;;0.30;0.30;;;;;;;;;;7393598;19;20147;-90
2023/02/09 16:17:48;;;;;;;0.30;0.30;;;;;;;;;;7395621;19;20151;-89
2023/02/09 16:20:16;;;;;;;0.20;0.20;;;;;;;;;;7392737;19;20175;-93
2023/02/09 16:22:45;;;;;;;0.20;0.20;;;;;;;;;;7393195;19;20499;-93
2023/02/09 16:25:24;;;;;;;0.30;0.30;;;;;;;;;;7389774;19;20137;-88
2023/02/09 16:27:51;;;;;;;0.30;0.30;;;;;;;;;;7395242;19;20152;-91
2023/02/09 16:30:23;;;;;;;0.30;0.30;;;;;;;;;;7389719;19;20159;-92
2023/02/09 16:32:50;;;;;;;0.30;0.30;;;;;;;;;;7397844;19;20187;-93
2023/02/09 16:35:19;;;;;;;1.50;1.40;;;;;;;;;;7395483;19;20145;-93
2023/02/09 16:37:47;;;;;;;2.63;1.73;;;;;;;;;;7394636;19;20212;-92
2023/02/09 16:40:30;;;;;;;0.30;0.30;;;;;;;;;;7392498;19;20140;-92
2023/02/09 16:42:59;;;;;;;0.53;0.53;;;;;;;;;;7393394;19;20533;-91
2023/02/09 16:45:29;;;;;;;0.30;0.30;;;;;;;;;;7392831;19;20145;-92
2023/02/09 16:47:58;;;;;;;1.37;1.33;;;;;;;;;;7395181;19;20152;-92
2023/02/09 16:50:30;;;;;;;1.33;1.23;;;;;;;;;;7395487;19;20149;-92
2023/02/09 16:53:15;;;;;;;2.30;2.03;;;;;;;;;;7399657;19;20194;-93
2023/02/09 16:55:42;;;;;;;1.33;1.27;;;;;;;;;;7403394;19;20141;-92
2023/02/09 16:58:12;;;;;;;2.50;1.53;;;;;;;;;;7396200;19;20216;-92
2023/02/09 17:00:39;;;;;;;2.30;2.10;;;;;;;;;;7394519;19;20148;-91
2023/02/09 17:03:14;;;;;;;0.90;0.90;;;;;;;;;;7394167;19;20145;-92
2023/02/09 17:05:46;;;;;;;0.70;0.70;;;;;;;;;;7391399;19;20163;-93
2023/02/09 17:08:22;;;;;;;1.20;1.10;;;;;;;;;;7397067;19;20137;-92
2023/02/09 17:10:55;;;;;;;0.97;0.97;;;;;;;;;;7393727;19;20152;-94
2023/02/09 17:13:22;;;;;;;5.30;1.57;;;;;;;;;;7382460;19;20165;-91
2023/02/09 17:15:56;;;;;;;3.57;1.90;;;;;;;;;;7397703;19;20144;-93
2023/02/09 17:18:26;;;;;;;1.40;1.30;;;;;;;;;;7401194;19;20486;-93
2023/02/09 17:20:59;;;;;;;2.47;2.27;;;;;;;;;;7397454;19;20144;-93
2023/02/09 17:23:27;;;;;;;1.47;1.37;;;;;;;;;;7394871;19;20161;-91
2023/02/09 17:25:54;;;;;;;2.00;1.73;;;;;;;;;;7392328;19;20143;-92
2023/02/09 17:28:26;;;;;;;2.17;2.00;;;;;;;;;;7408594;19;20501;-94
2023/02/09 17:30:58;;;;;;;1.60;1.40;;;;;;;;;;7399359;19;20133;-94
2023/02/09 17:33:30;;;;;;;1.23;1.13;;;;;;;;;;7396770;19;20223;-93
2023/02/09 17:35:57;;;;;;;2.43;2.23;;;;;;;;;;7400219;19;20148;-93
2023/02/09 17:38:56;;;;;;;1.70;1.60;;;;;;;;;;7399960;19;20157;-93
2023/02/09 17:41:31;;;;;;;1.87;1.77;;;;;;;;;;7404060;19;20137;-92
2023/02/09 17:44:17;;;;;;;2.27;2.07;;;;;;;;;;7406536;19;20164;-93
2023/02/09 17:46:57;;;;;;;1.37;1.27;;;;;;;;;;7411123;19;20128;-93
2023/02/09 17:49:23;;;;;;;2.40;1.33;;;;;;;;;;7409432;19;20143;-92
2023/02/09 17:51:51;;;;;;;1.67;1.43;;;;;;;;;;7408874;19;20185;-93
2023/02/09 17:54:19;;;;;;;2.30;1.80;;;;;;;;;;7400464;19;20179;-93
2023/02/09 17:56:46;;;;;;;1.53;1.43;;;;;;;;;;7398273;19;20137;-93
2023/02/09 17:59:13;;;;;;;0.77;0.77;;;;;;;;;;7398755;19;20148;-93
2023/02/09 18:01:43;;;;;;;1.30;1.27;;;;;;;;;;7393891;19;20163;-92
2023/02/09 18:04:29;;;;;;;2.40;2.00;;;;;;;;;;7396405;19;20682;-94
2023/02/09 18:06:57;;;;;;;2.30;2.20;;;;;;;;;;7398572;19;20148;-92
2023/02/09 18:09:23;;;;;;;1.90;1.57;;;;;;;;;;7399970;19;20149;-92
2023/02/09 18:11:50;;;;;;;1.87;1.77;;;;;;;;;;7405124;19;20141;-93
2023/02/09 18:14:18;;;;;;;3.70;2.73;;;;;;;;;;7425041;19;20153;-94
2023/02/09 18:16:46;;;;;;;2.67;2.20;;;;;;;;;;7425519;19;20140;-94
2023/02/09 18:19:14;;;;;;;1.73;1.63;;;;;;;;;;7426179;19;20163;-90
2023/02/09 18:22:00;;;;;;;1.93;1.50;;;;;;;;;;7427906;19;20141;-92
2023/02/09 18:24:29;;;;;;;1.60;1.50;;;;;;;;;;7424010;19;20152;-93
2023/02/09 18:26:56;;;;;;;2.00;1.90;;;;;;;;;;7424633;19;20152;-92
2023/02/09 18:29:27;;;;;;;1.47;1.10;;;;;;;;;;7416972;19;20159;-91
2023/02/09 18:31:58;;;;;;;2.00;1.77;;;;;;;;;;7415856;19;20169;-94
2023/02/09 18:34:26;;;;;;;1.03;0.93;;;;;;;;;;7412018;19;20179;-93
2023/02/09 18:36:53;;;;;;;2.13;1.93;;;;;;;;;;7393055;19;20133;-94
2023/02/09 18:39:20;;;;;;;2.00;1.70;;;;;;;;;;7413749;19;20224;-94
2023/02/09 18:41:52;;;;;;;1.87;1.50;;;;;;;;;;7404982;19;20551;-94
2023/02/09 18:44:27;;;;;;;1.47;1.20;;;;;;;;;;7415891;19;20157;-92
2023/02/09 18:46:55;;;;;;;3.07;1.77;;;;;;;;;;7411073;19;20183;-92
2023/02/09 18:49:21;;;;;;;1.70;1.60;;;;;;;;;;7391964;19;20498;-92
2023/02/09 18:51:48;;;;;;;1.80;1.70;;;;;;;;;;7392988;19;20145;-92
2023/02/09 18:54:15;;;;;;;2.07;1.37;;;;;;;;;;7410186;19;20148;-94
2023/02/09 18:56:41;;;;;;;1.43;1.33;;;;;;;;;;7409012;19;20149;-94
2023/02/09 18:59:08;;;;;;;2.77;2.03;;;;;;;;;;7404297;19;20148;-91